Ranchester, Wyoming
Current Conditions -  °F | °C
As of 10:53 PM on Saturday 22 Nov 2014 (Local Time) from KSHR Reporting Station
Clear Clear  
Wind Chill: 23°   Ceiling: Unl
Heat Index: 30°   Visibility: 10mi
Dew Point: 16°   Wind: 7mph
Humidity: 56%   Direction: 290°WNW
Pressure: 29.63"   Gusts: NA
Location:  44.91°N, 107.16°W
Report Text: KSHR 230553Z AUTO 29006KT 10SM CLR M01/M09 A2963 RMK AO2 SLP035 60000 T10111089 10044 21033 51031 TSNO
Loading
Personal Weather Stations






























Interactive Weather Map New forecast layout! Learn more

10-Day Weather Forecast

Advertisements
Track Severe Weather on mobile